Time;durP1;ratioP1;P1;durP2;ratioP2;P2;SDS_P1;SDS_P2;PMS_P1;PMS_P2;Temp;Humidity;BMP_temperature;BMP_pressure;BME280_temperature;BME280_humidity;BME280_pressure;Samples;Min_cycle;Max_cycle;Signal;HPM_P1;HPM_P2
2023/05/25 00:01:29;;;;;;;;;;;23.20;50.70;;;;;;1577178;74;837;-59
2023/05/25 00:03:32;;;;;;;;;;;23.10;51.10;;;;;;1571048;74;845;-59
2023/05/25 00:05:34;;;;;;;;;;;23.10;51.00;;;;;;1588163;73;1061;-58
2023/05/25 00:07:36;;;;;;;;;;;23.10;51.10;;;;;;1581701;74;1161;-59
2023/05/25 00:09:38;;;;;;;;;;;23.10;51.00;;;;;;1579016;74;704;-58
2023/05/25 00:11:40;;;;;;;;;;;23.10;50.90;;;;;;1581280;74;696;-59
2023/05/25 00:13:41;;;;;;;;;;;23.10;50.80;;;;;;1581306;73;1676;-59
2023/05/25 00:15:43;;;;;;;;;;;23.20;50.70;;;;;;1573830;74;786;-59
2023/05/25 00:17:47;;;;;;;;;;;23.10;50.70;;;;;;1572691;73;1139;-59
2023/05/25 00:19:49;;;;;;;;;;;23.10;50.70;;;;;;1585997;74;1970;-59
2023/05/25 00:21:51;;;;;;;;;;;23.20;50.60;;;;;;1588928;74;706;-58
2023/05/25 00:23:53;;;;;;;;;;;23.20;50.50;;;;;;1585178;74;692;-59
2023/05/25 00:25:54;;;;;;;;;;;23.20;50.50;;;;;;1579959;73;1419;-59
2023/05/25 00:27:56;;;;;;;;;;;23.20;50.50;;;;;;1585324;74;1149;-59
2023/05/25 00:29:58;;;;;;;;;;;23.20;50.40;;;;;;1588555;73;721;-59
2023/05/25 00:32:00;;;;;;;;;;;23.20;50.60;;;;;;1593171;74;782;-59
2023/05/25 00:34:02;;;;;;;;;;;23.20;50.60;;;;;;1589507;74;668;-59
2023/05/25 00:36:05;;;;;;;;;;;23.20;50.70;;;;;;1584254;74;694;-59
2023/05/25 00:38:06;;;;;;;;;;;23.20;50.90;;;;;;1589392;73;1102;-59
2023/05/25 00:40:09;;;;;;;;;;;23.10;51.10;;;;;;1557927;76;1923;-58
2023/05/25 00:42:11;;;;;;;;;;;23.10;51.20;;;;;;1529641;76;824;-59
2023/05/25 00:44:20;;;;;;;;;;;23.10;51.50;;;;;;1510331;77;876;-60
2023/05/25 00:46:19;;;;;;;;;;;23.00;51.50;;;;;;1571271;74;1638;-58
2023/05/25 00:48:21;;;;;;;;;;;23.00;51.70;;;;;;1582297;74;1125;-58
2023/05/25 00:50:25;;;;;;;;;;;23.00;51.60;;;;;;1578703;74;694;-59
2023/05/25 00:52:27;;;;;;;;;;;23.00;51.60;;;;;;1584086;74;1783;-59
2023/05/25 00:54:32;;;;;;;;;;;23.00;51.70;;;;;;1583291;74;1431;-59
2023/05/25 00:56:34;;;;;;;;;;;23.00;51.80;;;;;;1586269;74;1678;-59
2023/05/25 00:58:36;;;;;;;;;;;23.00;51.90;;;;;;1591017;73;810;-59
2023/05/25 01:00:38;;;;;;;;;;;23.00;52.00;;;;;;1585880;74;1926;-59
2023/05/25 01:02:41;;;;;;;;;;;22.90;52.00;;;;;;1586363;74;667;-59
2023/05/25 01:04:44;;;;;;;;;;;23.00;52.00;;;;;;1583659;74;1056;-60
2023/05/25 01:06:47;;;;;;;;;;;23.00;52.10;;;;;;1584914;73;1161;-59
2023/05/25 01:08:50;;;;;;;;;;;22.90;52.00;;;;;;1590931;73;1378;-60
2023/05/25 01:10:53;;;;;;;;;;;22.90;52.10;;;;;;1571948;74;1797;-59
2023/05/25 01:12:55;;;;;;;;;;;23.00;52.00;;;;;;1585177;74;809;-60
2023/05/25 01:14:56;;;;;;;;;;;23.00;51.90;;;;;;1585386;74;678;-60
2023/05/25 01:16:58;;;;;;;;;;;23.00;51.80;;;;;;1592554;74;1117;-59
2023/05/25 01:19:01;;;;;;;;;;;23.00;51.60;;;;;;1585754;74;781;-59
2023/05/25 01:21:12;;;;;;;;;;;23.10;51.60;;;;;;1576309;74;1927;-59
2023/05/25 01:23:12;;;;;;;;;;;23.10;51.50;;;;;;1578645;74;1496;-59
2023/05/25 01:25:20;;;;;;;;;;;23.10;51.70;;;;;;1582515;74;651;-59
2023/05/25 01:27:24;;;;;;;;;;;23.10;51.70;;;;;;1588090;74;1524;-59
2023/05/25 01:29:26;;;;;;;;;;;23.10;51.50;;;;;;1578295;74;1738;-59
2023/05/25 01:31:28;;;;;;;;;;;23.10;51.30;;;;;;1576080;74;714;-59
2023/05/25 01:33:30;;;;;;;;;;;23.10;51.10;;;;;;1563710;74;663;-59
2023/05/25 01:35:32;;;;;;;;;;;23.10;51.00;;;;;;1585821;74;775;-59
2023/05/25 01:37:36;;;;;;;;;;;23.10;50.90;;;;;;1566767;73;1500;-59
2023/05/25 01:39:39;;;;;;;;;;;23.20;50.80;;;;;;1579957;73;1919;-59
2023/05/25 01:41:41;;;;;;;;;;;23.20;50.90;;;;;;1583588;74;757;-59
2023/05/25 01:43:42;;;;;;;;;;;23.20;51.00;;;;;;1584740;74;865;-59
2023/05/25 01:45:45;;;;;;;;;;;23.10;50.90;;;;;;1570520;74;750;-59
2023/05/25 01:48:01;;;;;;;;;;;23.20;50.80;;;;;;1577980;74;1164;-59
2023/05/25 01:50:05;;;;;;;;;;;23.10;50.80;;;;;;1583871;74;696;-57
2023/05/25 01:52:08;;;;;;;;;;;23.20;50.80;;;;;;1587855;73;1675;-57
2023/05/25 01:54:12;;;;;;;;;;;23.20;50.90;;;;;;1575998;74;1544;-59
2023/05/25 01:56:13;;;;;;;;;;;23.20;50.70;;;;;;1575909;74;1756;-59
2023/05/25 01:58:15;;;;;;;;;;;23.20;50.70;;;;;;1569180;73;1126;-58
2023/05/25 02:00:18;;;;;;;;;;;23.30;50.70;;;;;;1576538;74;1938;-58
2023/05/25 02:02:20;;;;;;;;;;;23.20;50.70;;;;;;1583832;74;772;-59
2023/05/25 02:04:22;;;;;;;;;;;23.30;50.70;;;;;;1585018;74;1459;-58
2023/05/25 02:06:25;;;;;;;;;;;23.20;50.70;;;;;;1583017;74;986;-58
2023/05/25 02:08:27;;;;;;;;;;;23.20;50.80;;;;;;1579589;74;1213;-58
2023/05/25 02:10:28;;;;;;;;;;;23.20;50.70;;;;;;1572181;74;804;-59
2023/05/25 02:12:30;;;;;;;;;;;23.20;50.70;;;;;;1571847;74;791;-58
2023/05/25 02:14:32;;;;;;;;;;;23.20;50.60;;;;;;1574790;74;784;-59
2023/05/25 02:16:34;;;;;;;;;;;23.20;50.60;;;;;;1577701;74;1170;-59
2023/05/25 02:18:36;;;;;;;;;;;23.20;50.60;;;;;;1577327;74;1460;-59
2023/05/25 02:20:38;;;;;;;;;;;23.20;50.60;;;;;;1579449;74;1947;-58
2023/05/25 02:22:40;;;;;;;;;;;23.20;50.60;;;;;;1586860;74;721;-59
2023/05/25 02:24:42;;;;;;;;;;;23.20;50.50;;;;;;1581193;74;1010;-59
2023/05/25 02:26:44;;;;;;;;;;;23.20;50.50;;;;;;1569538;74;1088;-59
2023/05/25 02:28:46;;;;;;;;;;;23.20;50.60;;;;;;1585404;74;793;-59
2023/05/25 02:30:47;;;;;;;;;;;23.20;50.60;;;;;;1585150;74;803;-59
2023/05/25 02:32:49;;;;;;;;;;;23.20;50.60;;;;;;1568516;73;1486;-59
2023/05/25 02:34:51;;;;;;;;;;;23.20;50.60;;;;;;1579132;74;688;-59
2023/05/25 02:36:53;;;;;;;;;;;23.20;50.60;;;;;;1585707;73;1216;-59
2023/05/25 02:38:55;;;;;;;;;;;23.30;50.70;;;;;;1575076;74;752;-59
2023/05/25 02:40:57;;;;;;;;;;;23.20;50.60;;;;;;1566583;74;1964;-58
2023/05/25 02:42:59;;;;;;;;;;;23.20;50.70;;;;;;1579802;74;715;-58
2023/05/25 02:45:01;;;;;;;;;;;23.20;50.70;;;;;;1581111;74;620;-58
2023/05/25 02:47:03;;;;;;;;;;;23.20;50.70;;;;;;1578070;74;1526;-59
2023/05/25 02:49:05;;;;;;;;;;;23.20;50.70;;;;;;1584210;74;725;-59
2023/05/25 02:51:06;;;;;;;;;;;23.30;50.70;;;;;;1588124;74;723;-58
2023/05/25 02:53:08;;;;;;;;;;;23.20;50.70;;;;;;1583613;74;688;-58
2023/05/25 02:55:12;;;;;;;;;;;23.20;50.60;;;;;;1582781;74;577;-59
2023/05/25 02:57:14;;;;;;;;;;;23.30;50.70;;;;;;1579555;73;1163;-59
2023/05/25 02:59:16;;;;;;;;;;;23.30;50.70;;;;;;1582659;74;707;-59
2023/05/25 03:01:17;;;;;;;;;;;23.20;50.60;;;;;;1580813;74;1925;-57
2023/05/25 03:03:19;;;;;;;;;;;23.20;50.60;;;;;;1581649;74;717;-60
2023/05/25 03:05:21;;;;;;;;;;;23.20;50.60;;;;;;1568412;74;819;-59
2023/05/25 03:07:25;;;;;;;;;;;23.20;50.60;;;;;;1578206;73;1171;-59
2023/05/25 03:09:27;;;;;;;;;;;23.20;50.70;;;;;;1587523;74;1926;-59
2023/05/25 03:11:28;;;;;;;;;;;23.20;50.70;;;;;;1584459;74;757;-59
2023/05/25 03:13:30;;;;;;;;;;;23.20;50.70;;;;;;1568321;73;880;-59
2023/05/25 03:15:32;;;;;;;;;;;23.20;50.90;;;;;;1590581;73;1433;-59
2023/05/25 03:17:34;;;;;;;;;;;23.10;51.60;;;;;;1585530;74;1156;-59
2023/05/25 03:19:36;;;;;;;;;;;23.10;51.10;;;;;;1592792;74;685;-59
2023/05/25 03:21:38;;;;;;;;;;;23.20;51.00;;;;;;1590655;74;1931;-59
2023/05/25 03:23:40;;;;;;;;;;;23.20;50.90;;;;;;1585383;74;574;-59
2023/05/25 03:25:42;;;;;;;;;;;23.10;51.00;;;;;;1580110;74;701;-59
2023/05/25 03:27:44;;;;;;;;;;;23.20;51.00;;;;;;1594845;73;1123;-59
2023/05/25 03:29:47;;;;;;;;;;;23.10;51.20;;;;;;1594554;74;1385;-58
2023/05/25 03:31:49;;;;;;;;;;;23.10;51.20;;;;;;1593454;74;782;-60
2023/05/25 03:33:51;;;;;;;;;;;23.10;51.30;;;;;;1577258;74;654;-59
2023/05/25 03:35:53;;;;;;;;;;;23.10;51.40;;;;;;1585078;74;776;-59
2023/05/25 03:37:55;;;;;;;;;;;23.00;51.60;;;;;;1583235;74;1099;-58
2023/05/25 03:39:57;;;;;;;;;;;23.00;51.70;;;;;;1585267;74;757;-60
2023/05/25 03:41:59;;;;;;;;;;;23.00;51.50;;;;;;1589642;73;777;-59
2023/05/25 03:44:01;;;;;;;;;;;23.00;51.30;;;;;;1583966;74;1486;-59
2023/05/25 03:46:03;;;;;;;;;;;23.10;51.40;;;;;;1584439;74;717;-60
2023/05/25 03:48:05;;;;;;;;;;;23.10;51.30;;;;;;1574530;74;1079;-59
2023/05/25 03:50:07;;;;;;;;;;;23.10;51.40;;;;;;1585069;74;907;-59
2023/05/25 03:52:09;;;;;;;;;;;23.00;51.50;;;;;;1583881;74;746;-59
2023/05/25 03:54:11;;;;;;;;;;;23.00;51.80;;;;;;1590545;74;702;-59
2023/05/25 03:56:13;;;;;;;;;;;23.00;52.00;;;;;;1589124;74;773;-59
2023/05/25 03:58:17;;;;;;;;;;;23.00;51.90;;;;;;1590443;73;1468;-59
2023/05/25 04:00:19;;;;;;;;;;;23.00;51.90;;;;;;1588525;74;1913;-58
2023/05/25 04:02:21;;;;;;;;;;;23.10;51.80;;;;;;1579929;74;756;-59
2023/05/25 04:04:23;;;;;;;;;;;23.10;51.70;;;;;;1591707;74;743;-59
2023/05/25 04:06:25;;;;;;;;;;;23.10;51.50;;;;;;1586789;73;1026;-59
2023/05/25 04:08:28;;;;;;;;;;;23.10;51.40;;;;;;1552234;74;1155;-59
2023/05/25 04:10:30;;;;;;;;;;;23.20;51.30;;;;;;1552929;74;738;-59
2023/05/25 04:12:32;;;;;;;;;;;23.20;51.20;;;;;;1547817;74;1573;-58
2023/05/25 04:14:34;;;;;;;;;;;23.20;51.30;;;;;;1546150;75;777;-60
2023/05/25 04:16:36;;;;;;;;;;;23.10;51.30;;;;;;1553134;74;1115;-59
2023/05/25 04:18:38;;;;;;;;;;;23.20;51.20;;;;;;1549077;74;730;-59
2023/05/25 04:20:40;;;;;;;;;;;23.20;51.00;;;;;;1556313;74;1925;-59
2023/05/25 04:22:43;;;;;;;;;;;23.20;51.00;;;;;;1564277;74;780;-59
2023/05/25 04:24:45;;;;;;;;;;;23.20;50.90;;;;;;1554433;75;785;-59
2023/05/25 04:26:48;;;;;;;;;;;23.20;50.90;;;;;;1552877;74;1435;-59
2023/05/25 04:28:50;;;;;;;;;;;23.20;50.90;;;;;;1554933;74;755;-58
2023/05/25 04:30:55;;;;;;;;;;;23.20;50.90;;;;;;1548577;74;825;-58
2023/05/25 04:32:56;;;;;;;;;;;23.20;50.90;;;;;;1549768;74;1675;-58
2023/05/25 04:34:58;;;;;;;;;;;23.20;50.90;;;;;;1552204;74;684;-59
2023/05/25 04:37:04;;;;;;;;;;;23.20;50.90;;;;;;1558499;74;1125;-59
2023/05/25 04:39:04;;;;;;;;;;;23.20;50.90;;;;;;1545454;74;1600;-59
2023/05/25 04:41:07;;;;;;;;;;;23.20;50.90;;;;;;1547472;74;1927;-59
2023/05/25 04:43:10;;;;;;;;;;;23.20;50.90;;;;;;1561070;74;747;-59
2023/05/25 04:45:16;;;;;;;;;;;23.20;51.10;;;;;;1549069;74;694;-59
2023/05/25 04:47:15;;;;;;;;;;;23.10;51.50;;;;;;1549211;74;1657;-58
2023/05/25 04:49:18;;;;;;;;;;;23.10;51.80;;;;;;1565059;74;690;-59
2023/05/25 04:51:21;;;;;;;;;;;23.10;52.40;;;;;;1561242;74;837;-58
2023/05/25 04:53:23;;;;;;;;;;;23.00;52.60;;;;;;1562450;74;1464;-57
2023/05/25 04:55:25;;;;;;;;;;;23.00;52.60;;;;;;1555840;74;786;-58
2023/05/25 04:57:27;;;;;;;;;;;23.00;52.60;;;;;;1564218;74;1141;-58
2023/05/25 04:59:29;;;;;;;;;;;23.00;52.30;;;;;;1545143;74;634;-58
2023/05/25 05:01:33;;;;;;;;;;;23.00;53.00;;;;;;1539823;74;1926;-59
2023/05/25 05:03:35;;;;;;;;;;;23.00;52.70;;;;;;1554617;74;822;-58
2023/05/25 05:05:37;;;;;;;;;;;23.00;52.60;;;;;;1552894;75;576;-58
2023/05/25 05:07:39;;;;;;;;;;;22.90;52.60;;;;;;1565584;74;1486;-58
2023/05/25 05:09:41;;;;;;;;;;;22.90;52.40;;;;;;1586279;74;782;-58
2023/05/25 05:11:42;;;;;;;;;;;22.90;52.30;;;;;;1593489;74;810;-58
2023/05/25 05:13:44;;;;;;;;;;;22.90;52.20;;;;;;1599357;74;668;-58
2023/05/25 05:15:46;;;;;;;;;;;23.00;52.10;;;;;;1597104;74;659;-58
2023/05/25 05:17:48;;;;;;;;;;;22.90;52.10;;;;;;1592317;74;1207;-58
2023/05/25 05:19:50;;;;;;;;;;;23.00;52.00;;;;;;1584689;74;739;-58
2023/05/25 05:21:52;;;;;;;;;;;22.90;51.90;;;;;;1578125;73;1930;-58
2023/05/25 05:23:55;;;;;;;;;;;23.00;51.80;;;;;;1594907;74;594;-58
2023/05/25 05:25:56;;;;;;;;;;;23.00;51.60;;;;;;1585424;73;1096;-59
2023/05/25 05:27:58;;;;;;;;;;;23.00;51.50;;;;;;1579735;73;1131;-58
2023/05/25 05:30:00;;;;;;;;;;;23.00;51.50;;;;;;1597519;74;736;-58
2023/05/25 05:32:02;;;;;;;;;;;23.00;51.30;;;;;;1590114;74;752;-58
2023/05/25 05:34:04;;;;;;;;;;;23.10;51.30;;;;;;1595345;74;797;-59
2023/05/25 05:36:06;;;;;;;;;;;23.10;51.30;;;;;;1579906;74;1614;-58
2023/05/25 05:38:08;;;;;;;;;;;23.00;51.30;;;;;;1592688;73;1146;-57
2023/05/25 05:40:11;;;;;;;;;;;23.00;51.40;;;;;;1589363;74;729;-58
2023/05/25 05:42:13;;;;;;;;;;;23.10;51.60;;;;;;1585322;74;1917;-57
2023/05/25 05:44:15;;;;;;;;;;;23.00;51.50;;;;;;1589278;74;725;-56
2023/05/25 05:46:17;;;;;;;;;;;23.00;51.40;;;;;;1592161;74;859;-56
2023/05/25 05:48:18;;;;;;;;;;;23.10;51.50;;;;;;1588462;73;1096;-57
2023/05/25 05:50:20;;;;;;;;;;;23.10;51.50;;;;;;1587754;74;1552;-58
2023/05/25 05:52:22;;;;;;;;;;;23.10;51.50;;;;;;1584906;74;732;-57
2023/05/25 05:54:26;;;;;;;;;;;23.10;51.50;;;;;;1593832;73;709;-59
2023/05/25 05:56:28;;;;;;;;;;;23.10;51.40;;;;;;1584088;74;718;-57
2023/05/25 05:58:31;;;;;;;;;;;23.10;51.30;;;;;;1585485;74;785;-56
2023/05/25 06:00:33;;;;;;;;;;;23.10;51.30;;;;;;1598913;74;801;-56
2023/05/25 06:02:35;;;;;;;;;;;23.10;51.30;;;;;;1589331;74;1917;-57
2023/05/25 06:04:37;;;;;;;;;;;23.10;51.30;;;;;;1589856;73;1383;-57
2023/05/25 06:06:40;;;;;;;;;;;23.10;51.20;;;;;;1577785;74;1155;-56
2023/05/25 06:08:43;;;;;;;;;;;23.10;51.10;;;;;;1585542;74;1003;-58
2023/05/25 06:10:45;;;;;;;;;;;23.10;51.10;;;;;;1581108;74;807;-58
2023/05/25 06:12:46;;;;;;;;;;;23.10;51.20;;;;;;1596555;74;604;-57
2023/05/25 06:14:50;;;;;;;;;;;23.10;51.20;;;;;;1595284;74;737;-56
2023/05/25 06:16:52;;;;;;;;;;;23.10;51.20;;;;;;1588826;74;1592;-55
2023/05/25 06:18:54;;;;;;;;;;;23.10;51.30;;;;;;1575546;74;1602;-56
2023/05/25 06:20:56;;;;;;;;;;;23.10;51.20;;;;;;1590928;74;745;-55
2023/05/25 06:22:58;;;;;;;;;;;23.10;51.20;;;;;;1577193;73;771;-58
2023/05/25 06:25:00;;;;;;;;;;;23.00;51.20;;;;;;1590070;74;795;-59
2023/05/25 06:27:04;;;;;;;;;;;22.90;51.50;;;;;;1573578;74;1157;-59
2023/05/25 06:29:06;;;;;;;;;;;22.90;51.30;;;;;;1581087;74;684;-58
2023/05/25 06:31:08;;;;;;;;;;;22.80;50.80;;;;;;1590692;74;783;-59
2023/05/25 06:33:10;;;;;;;;;;;22.70;50.60;;;;;;1573627;74;1597;-58
2023/05/25 06:35:18;;;;;;;;;;;22.70;50.50;;;;;;1573105;74;815;-59
2023/05/25 06:37:15;;;;;;;;;;;22.70;50.70;;;;;;1579794;74;1927;-57
2023/05/25 06:39:17;;;;;;;;;;;22.70;50.70;;;;;;1584401;73;769;-57
2023/05/25 06:41:19;;;;;;;;;;;22.70;50.70;;;;;;1581943;74;1934;-59
2023/05/25 06:43:21;;;;;;;;;;;22.70;50.50;;;;;;1583562;74;730;-59
2023/05/25 06:45:23;;;;;;;;;;;22.60;50.00;;;;;;1577284;74;783;-59
2023/05/25 06:47:25;;;;;;;;;;;22.50;49.50;;;;;;1584684;74;1368;-57
2023/05/25 06:49:27;;;;;;;;;;;22.50;49.60;;;;;;1578218;74;842;-59
2023/05/25 06:51:30;;;;;;;;;;;22.50;49.60;;;;;;1589320;74;678;-59
2023/05/25 06:53:31;;;;;;;;;;;22.40;49.00;;;;;;1583703;73;698;-57
2023/05/25 06:55:33;;;;;;;;;;;22.40;49.00;;;;;;1575759;74;760;-58
2023/05/25 06:57:35;;;;;;;;;;;22.30;48.90;;;;;;1590010;74;1157;-58
2023/05/25 06:59:37;;;;;;;;;;;22.30;48.80;;;;;;1590261;74;1584;-59
2023/05/25 07:01:39;;;;;;;;;;;22.20;48.80;;;;;;1593293;74;1942;-57
2023/05/25 07:03:41;;;;;;;;;;;22.20;48.80;;;;;;1587756;74;804;-58
2023/05/25 07:05:43;;;;;;;;;;;22.20;48.60;;;;;;1584368;74;731;-57
2023/05/25 07:07:45;;;;;;;;;;;22.20;48.70;;;;;;1584206;74;1134;-59
2023/05/25 07:09:47;;;;;;;;;;;22.20;48.10;;;;;;1584561;73;937;-60
2023/05/25 07:11:49;;;;;;;;;;;22.00;48.30;;;;;;1588529;74;745;-60
2023/05/25 07:13:51;;;;;;;;;;;21.90;48.40;;;;;;1577363;74;1461;-59
2023/05/25 07:15:53;;;;;;;;;;;21.90;48.40;;;;;;1587605;74;742;-59
2023/05/25 07:17:56;;;;;;;;;;;21.90;48.60;;;;;;1594165;73;1130;-59
2023/05/25 07:19:57;;;;;;;;;;;22.00;48.60;;;;;;1589101;74;770;-58
2023/05/25 07:21:59;;;;;;;;;;;21.90;48.60;;;;;;1592003;73;1928;-58
2023/05/25 07:24:02;;;;;;;;;;;21.90;48.50;;;;;;1576764;74;727;-59
2023/05/25 07:26:03;;;;;;;;;;;21.90;48.70;;;;;;1589785;74;610;-58
2023/05/25 07:28:05;;;;;;;;;;;21.90;48.80;;;;;;1582566;73;1448;-58
2023/05/25 07:30:08;;;;;;;;;;;21.90;48.80;;;;;;1594514;74;777;-58
2023/05/25 07:32:09;;;;;;;;;;;21.90;48.80;;;;;;1591832;74;747;-59
2023/05/25 07:34:11;;;;;;;;;;;21.80;48.60;;;;;;1580125;74;721;-59
2023/05/25 07:36:13;;;;;;;;;;;21.70;48.40;;;;;;1574321;74;741;-59
2023/05/25 07:38:15;;;;;;;;;;;21.80;48.50;;;;;;1577748;73;1101;-58
2023/05/25 07:40:17;;;;;;;;;;;21.70;48.60;;;;;;1584241;74;699;-58
2023/05/25 07:42:20;;;;;;;;;;;21.70;48.60;;;;;;1587988;74;1933;-59
2023/05/25 07:44:22;;;;;;;;;;;21.70;48.70;;;;;;1581944;74;702;-59
2023/05/25 07:46:24;;;;;;;;;;;21.70;48.60;;;;;;1585603;74;659;-59
2023/05/25 07:48:26;;;;;;;;;;;21.70;48.80;;;;;;1574584;74;1141;-60
2023/05/25 07:50:28;;;;;;;;;;;21.70;48.90;;;;;;1582219;74;710;-59
2023/05/25 07:52:30;;;;;;;;;;;21.70;48.90;;;;;;1578086;74;720;-59
2023/05/25 07:54:32;;;;;;;;;;;21.70;48.90;;;;;;1578359;74;750;-59
2023/05/25 07:56:34;;;;;;;;;;;21.60;48.90;;;;;;1572912;74;1483;-59
2023/05/25 07:58:36;;;;;;;;;;;21.60;48.90;;;;;;1581717;74;935;-59
2023/05/25 08:00:38;;;;;;;;;;;21.60;48.80;;;;;;1582475;74;681;-60
2023/05/25 08:02:40;;;;;;;;;;;21.60;49.00;;;;;;1581481;74;1929;-59
2023/05/25 08:04:42;;;;;;;;;;;21.60;49.20;;;;;;1589702;74;650;-59
2023/05/25 08:06:44;;;;;;;;;;;21.60;49.30;;;;;;1582654;73;1143;-60
2023/05/25 08:08:46;;;;;;;;;;;21.60;49.20;;;;;;1587872;73;1099;-58
2023/05/25 08:10:48;;;;;;;;;;;21.60;49.60;;;;;;1575358;73;1413;-58
2023/05/25 08:12:49;;;;;;;;;;;21.70;49.90;;;;;;1579323;74;728;-58
2023/05/25 08:14:53;;;;;;;;;;;21.80;50.00;;;;;;1570619;74;789;-58
2023/05/25 08:16:54;;;;;;;;;;;21.80;50.00;;;;;;1584464;74;1188;-59
2023/05/25 08:18:58;;;;;;;;;;;21.90;50.10;;;;;;1576014;74;724;-58
2023/05/25 08:21:00;;;;;;;;;;;22.00;50.10;;;;;;1585462;74;776;-58
2023/05/25 08:23:03;;;;;;;;;;;22.10;50.00;;;;;;1569077;74;1934;-58
2023/05/25 08:25:05;;;;;;;;;;;22.10;49.90;;;;;;1565931;74;1509;-58
2023/05/25 08:27:07;;;;;;;;;;;22.10;50.10;;;;;;1559269;74;1132;-58
2023/05/25 08:29:09;;;;;;;;;;;22.10;50.10;;;;;;1563791;74;775;-58
2023/05/25 08:31:11;;;;;;;;;;;22.20;50.00;;;;;;1564791;74;769;-60
2023/05/25 08:33:13;;;;;;;;;;;22.20;49.80;;;;;;1575179;74;712;-58
2023/05/25 08:35:16;;;;;;;;;;;22.30;49.80;;;;;;1585439;74;729;-59
2023/05/25 08:37:20;;;;;;;;;;;22.40;49.70;;;;;;1580860;74;1065;-58
2023/05/25 08:39:21;;;;;;;;;;;22.40;49.50;;;;;;1582922;73;1486;-58
2023/05/25 08:41:23;;;;;;;;;;;22.50;49.60;;;;;;1580598;74;690;-58
2023/05/25 08:43:25;;;;;;;;;;;22.50;49.50;;;;;;1590223;74;1941;-58
2023/05/25 08:45:27;;;;;;;;;;;22.50;49.50;;;;;;1580074;74;682;-59
2023/05/25 08:47:30;;;;;;;;;;;22.50;49.50;;;;;;1581085;74;1181;-59
2023/05/25 08:49:31;;;;;;;;;;;22.60;49.40;;;;;;1564000;74;771;-58
2023/05/25 08:51:36;;;;;;;;;;;22.50;49.40;;;;;;1571927;74;792;-59
2023/05/25 08:53:38;;;;;;;;;;;22.60;49.40;;;;;;1591142;73;1502;-58
2023/05/25 08:55:40;;;;;;;;;;;22.60;49.30;;;;;;1567598;74;723;-59
2023/05/25 08:57:44;;;;;;;;;;;22.50;49.40;;;;;;1578376;74;1136;-60
2023/05/25 09:00:11;;;;;;;;;;;22.50;49.40;;;;;;1562098;74;710;-58
2023/05/25 09:02:14;;;;;;;;;;;22.60;49.40;;;;;;1573079;74;1922;-58
2023/05/25 09:04:18;;;;;;;;;;;22.60;49.20;;;;;;1578841;74;737;-58
2023/05/25 09:06:20;;;;;;;;;;;22.70;49.20;;;;;;1578670;74;1465;-58
2023/05/25 09:08:22;;;;;;;;;;;22.70;49.10;;;;;;1566043;74;1088;-58
2023/05/25 09:10:25;;;;;;;;;;;22.70;49.00;;;;;;1572545;74;1328;-58
2023/05/25 09:12:28;;;;;;;;;;;22.80;48.90;;;;;;1573950;74;639;-59
2023/05/25 09:14:30;;;;;;;;;;;22.70;48.90;;;;;;1593675;74;781;-58
2023/05/25 09:16:32;;;;;;;;;;;22.70;48.80;;;;;;1592179;74;1162;-58
2023/05/25 09:18:34;;;;;;;;;;;22.80;48.80;;;;;;1586684;74;803;-59
2023/05/25 09:20:36;;;;;;;;;;;22.80;48.80;;;;;;1598212;73;1537;-59
2023/05/25 09:22:38;;;;;;;;;;;22.80;48.80;;;;;;1585158;74;1923;-59
2023/05/25 09:24:40;;;;;;;;;;;22.80;48.70;;;;;;1593741;74;727;-59
2023/05/25 09:26:43;;;;;;;;;;;22.80;48.70;;;;;;1591278;73;1099;-58
2023/05/25 09:28:45;;;;;;;;;;;22.80;48.70;;;;;;1582844;74;746;-59
2023/05/25 09:30:47;;;;;;;;;;;22.80;48.70;;;;;;1582238;74;735;-58
2023/05/25 09:32:50;;;;;;;;;;;22.80;48.70;;;;;;1590970;74;666;-60
2023/05/25 09:34:54;;;;;;;;;;;22.80;48.60;;;;;;1585103;74;1439;-58
2023/05/25 09:36:55;;;;;;;;;;;22.80;48.60;;;;;;1586050;73;1495;-59
2023/05/25 09:38:57;;;;;;;;;;;22.80;48.60;;;;;;1553547;75;573;-58
2023/05/25 09:40:59;;;;;;;;;;;22.90;48.60;;;;;;1592300;74;645;-59
2023/05/25 09:43:04;;;;;;;;;;;22.80;48.50;;;;;;1586534;74;1921;-59
2023/05/25 09:45:06;;;;;;;;;;;22.90;48.60;;;;;;1581515;74;707;-58
2023/05/25 09:47:08;;;;;;;;;;;22.90;48.60;;;;;;1584903;74;1154;-59
2023/05/25 09:49:10;;;;;;;;;;;22.90;48.50;;;;;;1586676;74;1440;-59
2023/05/25 09:51:12;;;;;;;;;;;22.90;48.50;;;;;;1566211;74;870;-59
2023/05/25 09:53:14;;;;;;;;;;;23.00;48.40;;;;;;1521723;76;781;-59
2023/05/25 09:55:16;;;;;;;;;;;23.00;48.50;;;;;;1522764;77;743;-58
2023/05/25 09:57:18;;;;;;;;;;;22.90;48.40;;;;;;1523174;77;1079;-60
2023/05/25 09:59:21;;;;;;;;;;;23.00;48.40;;;;;;1591846;74;796;-59
2023/05/25 10:01:23;;;;;;;;;;;23.00;48.40;;;;;;1586204;74;697;-58
2023/05/25 10:03:26;;;;;;;;;;;23.00;48.40;;;;;;1585804;74;1920;-59
2023/05/25 10:05:28;;;;;;;;;;;23.00;48.40;;;;;;1581402;74;714;-59
2023/05/25 10:07:30;;;;;;;;;;;23.00;48.40;;;;;;1593114;73;1134;-58
2023/05/25 10:09:32;;;;;;;;;;;23.00;48.30;;;;;;1578587;74;659;-59
2023/05/25 10:11:36;;;;;;;;;;;23.00;48.30;;;;;;1583725;73;956;-59
2023/05/25 10:13:38;;;;;;;;;;;23.00;48.30;;;;;;1577259;74;714;-59
2023/05/25 10:15:40;;;;;;;;;;;23.00;48.30;;;;;;1580154;74;743;-58
2023/05/25 10:17:46;;;;;;;;;;;23.00;48.30;;;;;;1585174;73;1538;-59
2023/05/25 10:19:50;;;;;;;;;;;23.00;48.30;;;;;;1586871;73;1600;-59
2023/05/25 10:21:53;;;;;;;;;;;23.00;48.30;;;;;;1590679;74;734;-60
2023/05/25 10:23:57;;;;;;;;;;;23.00;48.20;;;;;;1578436;74;1942;-59
2023/05/25 10:25:59;;;;;;;;;;;23.00;48.40;;;;;;1587913;74;702;-61
2023/05/25 10:28:21;;;;;;;;;;;22.90;48.50;;;;;;1590828;74;1178;-59
2023/05/25 10:30:23;;;;;;;;;;;22.80;48.20;;;;;;1581642;74;730;-60
2023/05/25 10:32:25;;;;;;;;;;;22.70;47.80;;;;;;1591414;74;1615;-59
2023/05/25 10:34:27;;;;;;;;;;;22.50;47.60;;;;;;1589559;74;725;-60
2023/05/25 10:36:30;;;;;;;;;;;22.40;47.60;;;;;;1591797;74;824;-60
2023/05/25 10:38:32;;;;;;;;;;;22.20;47.30;;;;;;1586654;74;756;-60
2023/05/25 10:40:33;;;;;;;;;;;22.20;47.80;;;;;;1584550;74;741;-60
2023/05/25 10:42:36;;;;;;;;;;;22.10;47.30;;;;;;1592833;74;1931;-59
2023/05/25 10:44:39;;;;;;;;;;;22.00;47.80;;;;;;1579181;74;1375;-60
2023/05/25 10:46:41;;;;;;;;;;;21.90;47.80;;;;;;1590502;74;1150;-60
2023/05/25 10:48:47;;;;;;;;;;;22.00;48.00;;;;;;1580215;73;737;-59
2023/05/25 10:50:49;;;;;;;;;;;22.00;47.90;;;;;;1596105;73;716;-59
2023/05/25 10:52:58;;;;;;;;;;;21.90;47.20;;;;;;1582878;74;797;-60
2023/05/25 10:55:04;;;;;;;;;;;21.80;47.40;;;;;;1589214;74;725;-60
2023/05/25 10:57:10;;;;;;;;;;;21.80;47.70;;;;;;1590526;73;1127;-59
2023/05/25 10:59:12;;;;;;;;;;;21.70;48.10;;;;;;1596459;73;1469;-61
2023/05/25 11:01:14;;;;;;;;;;;21.70;48.40;;;;;;1596585;74;768;-61
2023/05/25 11:03:19;;;;;;;;;;;21.70;48.40;;;;;;1588846;73;1912;-61
2023/05/25 11:05:30;;;;;;;;;;;21.70;48.50;;;;;;1576129;74;1624;-58
2023/05/25 11:07:32;;;;;;;;;;;21.80;48.60;;;;;;1583649;73;1181;-59
2023/05/25 11:09:37;;;;;;;;;;;21.70;48.30;;;;;;1548454;76;823;-59
2023/05/25 11:11:49;;;;;;;;;;;21.70;48.40;;;;;;1581067;74;1126;-60
2023/05/25 11:13:48;;;;;;;;;;;21.80;48.30;;;;;;1573432;74;1509;-59
2023/05/25 11:16:08;;;;;;;;;;;21.70;48.50;;;;;;1587928;74;782;-58
2023/05/25 11:18:12;;;;;;;;;;;21.70;48.90;;;;;;1578742;74;1101;-58
2023/05/25 11:20:22;;;;;;;;;;;21.70;48.90;;;;;;1591892;73;697;-60
2023/05/25 11:22:31;;;;;;;;;;;21.60;48.70;;;;;;1575554;74;687;-60
2023/05/25 11:24:32;;;;;;;;;;;21.60;48.60;;;;;;1587555;74;1938;-59
2023/05/25 11:26:35;;;;;;;;;;;21.50;49.10;;;;;;1587327;74;1168;-59
2023/05/25 11:28:38;;;;;;;;;;;21.40;48.90;;;;;;1585844;74;1606;-59
2023/05/25 11:30:41;;;;;;;;;;;21.40;49.30;;;;;;1573384;74;1097;-59
2023/05/25 11:32:49;;;;;;;;;;;21.40;49.10;;;;;;1588309;74;829;-59
2023/05/25 11:34:51;;;;;;;;;;;21.40;49.40;;;;;;1568510;74;709;-59
2023/05/25 11:36:54;;;;;;;;;;;21.40;49.40;;;;;;1579504;74;1128;-59
2023/05/25 11:38:56;;;;;;;;;;;21.30;49.50;;;;;;1582800;74;748;-58
2023/05/25 11:40:58;;;;;;;;;;;21.30;49.70;;;;;;1591486;73;1444;-58
2023/05/25 11:43:00;;;;;;;;;;;21.30;49.70;;;;;;1583784;73;1925;-59
2023/05/25 11:45:02;;;;;;;;;;;21.20;49.30;;;;;;1575135;74;750;-59
2023/05/25 11:47:13;;;;;;;;;;;21.20;49.20;;;;;;1580661;74;1158;-58
2023/05/25 11:49:15;;;;;;;;;;;21.20;49.50;;;;;;1583819;73;684;-58
2023/05/25 11:51:17;;;;;;;;;;;21.20;49.50;;;;;;1581144;74;878;-59
2023/05/25 11:53:19;;;;;;;;;;;21.20;49.90;;;;;;1587628;74;722;-59
2023/05/25 11:55:21;;;;;;;;;;;21.20;49.80;;;;;;1593610;74;1563;-58
2023/05/25 11:57:23;;;;;;;;;;;21.30;50.00;;;;;;1585828;74;1068;-58
2023/05/25 11:59:26;;;;;;;;;;;21.30;49.50;;;;;;1589064;74;746;-58
2023/05/25 12:01:30;;;;;;;;;;;21.20;49.70;;;;;;1578894;74;751;-59
2023/05/25 12:03:32;;;;;;;;;;;21.30;49.90;;;;;;1588603;74;1923;-59
2023/05/25 12:05:37;;;;;;;;;;;21.20;49.50;;;;;;1588518;73;709;-59
2023/05/25 12:07:42;;;;;;;;;;;21.20;49.90;;;;;;1589216;74;1141;-58
2023/05/25 12:09:44;;;;;;;;;;;21.10;49.90;;;;;;1575324;74;1454;-59